Arendtsville, Pennsylvania
Current Conditions -  °F | °C
As of 1:53 AM on Friday 19 Dec 2014 (Local Time) from KRYT Reporting Station
Overcast Overcast  
Wind Chill: -1°   Ceiling: 2400
Heat Index: -1°   Visibility: 10mi
Dew Point: -6°   Wind: 0mph
Humidity: 69%   Direction: NA
Pressure: 30.05"   Gusts: NA
Location:  39.92°N, 77.3°W
Report Text: KRYT 190653Z AUTO 00000KT 10SM OVC024 M01/M06 A3005 RMK AO2 SLP190 T10061056 $
Loading
Personal Weather Stations






























Interactive Weather Map New forecast layout! Learn more

10-Day Weather Forecast

Advertisements
Track Severe Weather on mobile